Time;durP1;ratioP1;P1;durP2;ratioP2;P2;SDS_P1;SDS_P2;PMS_P1;PMS_P2;Temp;Humidity;BMP_temperature;BMP_pressure;BME280_temperature;BME280_humidity;BME280_pressure;Samples;Min_cycle;Max_cycle;Signal;HPM_P1;HPM_P2
2023/06/12 00:03:49;;;;;;;;;16.50;16.50;;;;;;;;2;279084381;279084381;-96
2023/06/12 00:11:20;;;;;;;;;17.50;17.50;;;;;;;;2;234068576;234068576;-96
2023/06/12 00:20:20;;;;;;;;;21.50;21.50;;;;;;;;2;279083568;279083568;-96
2023/06/12 00:27:51;;;;;;;;;22.50;22.50;;;;;;;;2;234069950;234069950;-96
2023/06/12 00:36:51;;;;;;;;;17.00;17.00;;;;;;;;2;279081889;279081889;-96
2023/06/12 00:44:21;;;;;;;;;15.00;15.00;;;;;;;;2;234069290;234069290;-96
2023/06/12 00:53:22;;;;;;;;;12.00;12.00;;;;;;;;2;279080703;279080703;-96
2023/06/12 01:00:54;;;;;;;;;17.50;17.50;;;;;;;;2;234069276;234069276;-96
2023/06/12 01:09:57;;;;;;;;;11.50;11.50;;;;;;;;2;279082447;279082447;-96
2023/06/12 01:17:29;;;;;;;;;16.50;16.50;;;;;;;;2;234071385;234071385;-96
2023/06/12 01:26:55;;;;;;;;;9.50;9.50;;;;;;;;2;279082147;279082147;-96
2023/06/12 01:34:33;;;;;;;;;33.50;25.00;;;;;;;;2;234069881;234069881;-96
2023/06/12 01:43:34;;;;;;;;;19.50;19.50;;;;;;;;2;279083629;279083629;-96
2023/06/12 01:51:05;;;;;;;;;11.50;11.50;;;;;;;;2;234069894;234069894;-96
2023/06/12 02:00:06;;;;;;;;;19.00;19.00;;;;;;;;2;279082020;279082020;-96
2023/06/12 02:07:36;;;;;;;;;22.00;22.00;;;;;;;;2;234067395;234067395;-96
2023/06/12 02:16:37;;;;;;;;;24.00;24.00;;;;;;;;2;279080313;279080313;-96
2023/06/12 02:24:07;;;;;;;;;20.00;20.00;;;;;;;;2;234069410;234069410;-96
2023/06/12 02:33:09;;;;;;;;;19.50;19.50;;;;;;;;2;279082462;279082462;-96
2023/06/12 02:40:39;;;;;;;;;25.50;25.50;;;;;;;;2;234070835;234070835;-96
2023/06/12 02:49:44;;;;;;;;;21.00;21.00;;;;;;;;2;279082462;279082462;-96
2023/06/12 02:57:14;;;;;;;;;30.00;29.00;;;;;;;;2;234071115;234071115;-96
2023/06/12 03:06:15;;;;;;;;;25.50;25.50;;;;;;;;2;279083159;279083159;-96
2023/06/12 03:13:45;;;;;;;;;15.00;15.00;;;;;;;;2;234069960;234069960;-96
2023/06/12 03:22:45;;;;;;;;;25.50;25.50;;;;;;;;2;279083662;279083662;-96
2023/06/12 03:30:16;;;;;;;;;28.50;28.50;;;;;;;;2;234071441;234071441;-96
2023/06/12 03:39:16;;;;;;;;;26.00;26.00;;;;;;;;2;279078994;279078994;-96
2023/06/12 03:46:47;;;;;;;;;18.00;18.00;;;;;;;;2;234068509;234068509;-96
2023/06/12 03:55:47;;;;;;;;;22.00;22.00;;;;;;;;2;279083712;279083712;-96
2023/06/12 04:03:20;;;;;;;;;23.00;23.00;;;;;;;;2;234070027;234070027;-96
2023/06/12 04:12:21;;;;;;;;;15.00;15.00;;;;;;;;2;279080570;279080570;-96
2023/06/12 04:19:55;;;;;;;;;15.50;15.50;;;;;;;;2;234067128;234067128;-96
2023/06/12 04:28:56;;;;;;;;;22.00;22.00;;;;;;;;2;279083732;279083732;-96
2023/06/12 04:36:27;;;;;;;;;23.00;23.00;;;;;;;;2;234069157;234069157;-96
2023/06/12 04:45:32;;;;;;;;;24.50;24.50;;;;;;;;2;279078789;279078789;-96
2023/06/12 04:53:02;;;;;;;;;24.50;24.50;;;;;;;;2;234071565;234071565;-96
2023/06/12 05:02:03;;;;;;;;;18.00;18.00;;;;;;;;2;279082036;279082036;-96
2023/06/12 05:09:33;;;;;;;;;22.50;22.50;;;;;;;;2;234073686;234073686;-96
2023/06/12 05:18:34;;;;;;;;;19.00;19.00;;;;;;;;2;279080653;279080653;-96
2023/06/12 05:26:04;;;;;;;;;18.00;18.00;;;;;;;;2;234072260;234072260;-96
2023/06/12 05:35:05;;;;;;;;;29.50;29.00;;;;;;;;2;279080783;279080783;-96
2023/06/12 05:42:36;;;;;;;;;9.50;9.50;;;;;;;;2;234070309;234070309;-96
2023/06/12 05:51:36;;;;;;;;;14.00;14.00;;;;;;;;2;279085211;279085211;-96
2023/06/12 05:59:07;;;;;;;;;16.50;16.50;;;;;;;;2;234072039;234072039;-95
2023/06/12 06:08:07;;;;;;;;;18.50;18.50;;;;;;;;2;279079877;279079877;-96
2023/06/12 06:15:37;;;;;;;;;17.50;17.50;;;;;;;;2;234066520;234066520;-96
2023/06/12 06:24:38;;;;;;;;;14.50;14.50;;;;;;;;2;279082118;279082118;-96
2023/06/12 06:32:08;;;;;;;;;18.50;18.50;;;;;;;;2;234069419;234069419;-96
2023/06/12 06:41:09;;;;;;;;;23.00;23.00;;;;;;;;2;279084829;279084829;-96
2023/06/12 06:48:39;;;;;;;;;19.50;19.50;;;;;;;;2;234067945;234067945;-94
2023/06/12 06:58:24;;;;;;;;;;;;;;;;;;;;;
2023/06/12 07:06:02;;;;;;;;;17.00;17.00;;;;;;;;2;234097340;234097340;-96
2023/06/12 07:18:26;;;;;;;;;11.50;11.50;;;;;;;;2;279084532;279084532;-95
2023/06/12 07:25:57;;;;;;;;;15.50;15.50;;;;;;;;2;234068977;234068977;-95
2023/06/12 07:34:58;;;;;;;;;18.00;18.00;;;;;;;;2;279083366;279083366;-95
2023/06/12 07:42:28;;;;;;;;;19.00;19.00;;;;;;;;2;234067565;234067565;-92
2023/06/12 07:51:28;;;;;;;;;13.00;13.00;;;;;;;;2;279081492;279081492;-95
2023/06/12 07:59:06;;;;;;;;;26.50;26.50;;;;;;;;2;234067143;234067143;-94
2023/06/12 08:08:09;;;;;;;;;28.00;28.00;;;;;;;;2;279079946;279079946;-94
2023/06/12 08:15:40;;;;;;;;;16.50;16.50;;;;;;;;2;234068536;234068536;-94
2023/06/12 08:24:41;;;;;;;;;18.00;18.00;;;;;;;;2;279081323;279081323;-94
2023/06/12 08:32:13;;;;;;;;;13.50;13.50;;;;;;;;2;234067794;234067794;-93
2023/06/12 08:41:17;;;;;;;;;21.00;21.00;;;;;;;;2;279081480;279081480;-94
2023/06/12 08:48:48;;;;;;;;;13.50;13.50;;;;;;;;2;234066218;234066218;-93
2023/06/12 08:51:52;;;;;;;;;20.50;17.00;;;;;;;;2;184185740;184185740;-94
2023/06/12 09:01:21;;;;;;;;;14.00;14.00;;;;;;;;418379;22;279080345;-93
2023/06/12 09:08:51;;;;;;;;;13.50;13.50;;;;;;;;2;234067781;234067781;-94
2023/06/12 09:17:53;;;;;;;;;13.50;13.50;;;;;;;;2;279079729;279079729;-94
2023/06/12 09:25:32;;;;;;;;;11.50;11.50;;;;;;;;2;234066940;234066940;-94
2023/06/12 09:34:33;;;;;;;;;13.50;13.50;;;;;;;;2;279079284;279079284;-93
2023/06/12 09:42:04;;;;;;;;;18.50;18.50;;;;;;;;2;234069994;234069994;-93
2023/06/12 09:47:05;;;;;;;;;14.50;14.50;;;;;;;;2;277171574;277171574;-94
2023/06/12 09:52:17;;;;;;;;;9.50;9.50;;;;;;;;431666;22;99625630;-95
2023/06/12 09:56:57;;;;;;;;;;;;;;;;;;4;44823313;93228564;-95
2023/06/12 10:00:30;;;;;;;;;11.50;11.50;;;;;;;;3;69708570;106630615;-95
2023/06/12 10:05:23;;;;;;;;;11.50;11.50;;;;;;;;217168;22;109917660;-95
2023/06/12 10:09:57;;;;;;;;;;;;;;;;;;6;6417330;90275354;-93
2023/06/12 10:13:24;;;;;;;;;15.00;15.00;;;;;;;;3;60676112;93410681;-95
2023/06/12 10:16:26;;;;;;;;;11.00;11.00;;;;;;;;4;34320413;64653997;-95
2023/06/12 10:19:52;;;;;;;;;;;;;;;;;;257668;22;58648445;-94
2023/06/12 10:23:41;;;;;;;;;14.00;14.00;;;;;;;;216503;22;53997160;-94
2023/06/12 10:26:06;;;;;;;;;;;;;;;;;;762;22;80137504;-94
2023/06/12 10:28:50;;;;;;;;;12.50;12.50;;;;;;;;202499;22;130528011;-95
2023/06/12 10:31:18;;;;;;;;;12.25;12.25;;;;;;;;1273791;22;115574640;-95
2023/06/12 10:34:10;;;;;;;;;7.00;7.00;;;;;;;;486119;22;129398235;-94
2023/06/12 10:38:05;;;;;;;;;11.00;11.00;;;;;;;;590640;22;92914708;-95
2023/06/12 10:41:58;;;;;;;;;;;;;;;;;;217538;22;94365024;-94
2023/06/12 10:45:16;;;;;;;;;6.50;6.50;;;;;;;;3;66838590;79423605;-93
2023/06/12 10:49:57;;;;;;;;;9.50;9.50;;;;;;;;215753;22;97517963;-94
2023/06/12 10:56:06;;;;;;;;;12.50;12.50;;;;;;;;4;56473676;102901900;-95
2023/06/12 11:01:45;;;;;;;;;8.50;8.50;;;;;;;;3;108797774;125533299;-95
2023/06/12 11:06:20;;;;;;;;;;;;;;;;;;434768;22;127467650;-94
2023/06/12 11:08:46;;;;;;;;;11.00;11.00;;;;;;;;3574325;22;56115246;-93
2023/06/12 11:11:17;;;;;;;;;;;;;;;;;;2727463;22;41561189;-95
2023/06/12 11:14:04;;;;;;;;;8.50;8.50;;;;;;;;646749;22;78303247;-95
2023/06/12 11:16:30;;;;;;;;;12.50;12.50;;;;;;;;439390;22;115823647;-93
2023/06/12 11:19:06;;;;;;;;;12.00;12.00;;;;;;;;2115177;22;47400355;-94
2023/06/12 11:21:32;;;;;;;;;12.75;12.75;;;;;;;;6299947;22;28334;-93
2023/06/12 11:25:01;;;;;;;;;11.00;11.00;;;;;;;;3192578;22;67014400;-93
2023/06/12 11:29:34;;;;;;;;;;;;;;;;;;434856;22;130473779;-94
2023/06/12 11:34:41;;;;;;;;;12.00;12.00;;;;;;;;3;105335643;133805744;-95
2023/06/12 11:38:44;;;;;;;;;15.50;15.50;;;;;;;;432189;22;103353121;-94
2023/06/12 11:43:35;;;;;;;;;10.50;10.50;;;;;;;;217347;22;115525570;-94
2023/06/12 11:49:48;;;;;;;;;11.00;11.00;;;;;;;;4;17978165;108879506;-94
2023/06/12 11:52:13;;;;;;;;;;;;;;;;;;279418;22;75208024;-94
2023/06/12 11:56:34;;;;;;;;;;;;;;;;;;150431;22;116764048;-93
2023/06/12 12:02:29;;;;;;;;;9.00;9.00;;;;;;;;217060;22;126835723;-94
2023/06/12 12:08:53;;;;;;;;;7.00;7.00;;;;;;;;3;122876275;138745509;-94
2023/06/12 12:15:03;;;;;;;;;;;;;;;;;;3;107890914;138791630;-95
2023/06/12 12:20:48;;;;;;;;;7.00;7.00;;;;;;;;3;101577453;109875739;-95
2023/06/12 12:26:38;;;;;;;;;10.00;10.00;;;;;;;;3;112409864;125922720;-94
2023/06/12 12:33:04;;;;;;;;;9.00;9.00;;;;;;;;3;129114760;139556779;-94
2023/06/12 12:39:15;;;;;;;;;13.00;12.00;;;;;;;;3;107337037;139429732;-94
2023/06/12 12:44:45;;;;;;;;;9.00;9.00;;;;;;;;3;97712415;104638426;-95
2023/06/12 12:50:08;;;;;;;;;10.00;10.00;;;;;;;;3;106191617;119348955;-94
2023/06/12 12:52:39;;;;;;;;;9.50;9.50;;;;;;;;3;26311787;124986764;-95
2023/06/12 12:57:18;;;;;;;;;12.50;12.50;;;;;;;;957778;22;117648027;-92
2023/06/12 13:02:58;;;;;;;;;11.50;11.50;;;;;;;;3;99035224;124892988;-93
2023/06/12 13:08:23;;;;;;;;;7.00;7.00;;;;;;;;3;97386985;98913358;-93
2023/06/12 13:13:51;;;;;;;;;4.00;4.00;;;;;;;;3;108457946;120207824;-93
2023/06/12 13:19:57;;;;;;;;;4.50;4.50;;;;;;;;3;120368398;127927530;-92
2023/06/12 13:26:02;;;;;;;;;;;;;;;;;;3;107898389;139555750;-94
2023/06/12 13:31:22;;;;;;;;;5.00;5.00;;;;;;;;3;88775464;106648171;-92
2023/06/12 13:36:46;;;;;;;;;7.50;7.50;;;;;;;;3;103709593;123111228;-96
2023/06/12 13:42:49;;;;;;;;;9.00;9.00;;;;;;;;3;119611567;126085465;-96
2023/06/12 13:49:04;;;;;;;;;;;;;;;;;;3;107833545;139557158;-96
2023/06/12 13:54:49;;;;;;;;;10.00;10.00;;;;;;;;3;101447470;111982239;-96
2023/06/12 13:59:12;;;;;;;;;3.50;3.50;;;;;;;;3;109582286;121865046;-96
2023/06/12 14:03:13;;;;;;;;;9.00;9.00;;;;;;;;318049;22;111575359;-96
2023/06/12 14:07:54;;;;;;;;;10.00;10.00;;;;;;;;634929;22;119895217;-92
2023/06/12 14:14:03;;;;;;;;;11.00;11.00;;;;;;;;3;102480589;131562670;-96
2023/06/12 14:25:26;;;;;;;;;9.00;9.00;;;;;;;;3;109731123;114215673;-96
2023/06/12 14:31:28;;;;;;;;;4.50;4.50;;;;;;;;3;116951347;127753912;-92
2023/06/12 14:37:28;;;;;;;;;;;;;;;;;;3;107984247;139484176;-92
2023/06/12 14:43:17;;;;;;;;;8.00;8.00;;;;;;;;5;17924737;123874422;-93
2023/06/12 14:49:15;;;;;;;;;11.00;11.00;;;;;;;;3;103343600;129424457;-93
2023/06/12 14:54:56;;;;;;;;;6.00;6.00;;;;;;;;3;102434298;109557882;-92
2023/06/12 15:04:08;;;;;;;;;6.00;6.00;;;;;;;;3;122288396;212757945;-92
2023/06/12 15:13:08;;;;;;;;;12.50;12.50;;;;;;;;2;279081493;279081493;-93
2023/06/12 15:20:38;;;;;;;;;5.50;5.50;;;;;;;;2;234070004;234070004;-92
2023/06/12 15:29:40;;;;;;;;;3.00;3.00;;;;;;;;2;279083417;279083417;-93
2023/06/12 15:37:15;;;;;;;;;11.00;11.00;;;;;;;;2;234068613;234068613;-95
2023/06/12 15:46:16;;;;;;;;;2.00;2.00;;;;;;;;2;279080696;279080696;-91
2023/06/12 15:53:46;;;;;;;;;4.00;4.00;;;;;;;;2;234070157;234070157;-93
2023/06/12 16:02:54;;;;;;;;;8.00;8.00;;;;;;;;2;279082639;279082639;-92
2023/06/12 16:10:25;;;;;;;;;12.00;12.00;;;;;;;;2;234069034;234069034;-93
2023/06/12 16:19:25;;;;;;;;;6.50;6.50;;;;;;;;2;279083254;279083254;-92
2023/06/12 16:27:01;;;;;;;;;1.50;1.50;;;;;;;;2;234067832;234067832;-91
2023/06/12 16:36:08;;;;;;;;;8.50;8.50;;;;;;;;2;279082220;279082220;-91
2023/06/12 16:43:40;;;;;;;;;5.00;5.00;;;;;;;;2;234070365;234070365;-91
2023/06/12 16:52:41;;;;;;;;;6.00;6.00;;;;;;;;2;279078906;279078906;-91
2023/06/12 17:00:11;;;;;;;;;5.00;5.00;;;;;;;;2;234066637;234066637;-91
2023/06/12 17:09:02;;;;;;;;;4.50;4.50;;;;;;;;2;279082966;279082966;-91
2023/06/12 17:14:37;;;;;;;;;6.00;6.00;;;;;;;;2;158821850;158821850;-91
2023/06/12 17:23:38;;;;;;;;;9.00;9.00;;;;;;;;2;279081168;279081168;-91
2023/06/12 17:31:10;;;;;;;;;12.00;12.00;;;;;;;;2;234068880;234068880;-91
2023/06/12 17:40:11;;;;;;;;;4.00;4.00;;;;;;;;2;279077379;279077379;-91
2023/06/12 17:47:42;;;;;;;;;6.50;6.50;;;;;;;;2;234069491;234069491;-91
2023/06/12 17:56:42;;;;;;;;;8.50;8.50;;;;;;;;2;279079924;279079924;-90
2023/06/12 18:04:13;;;;;;;;;5.00;5.00;;;;;;;;2;234068994;234068994;-91
2023/06/12 18:30:20;;;;;;;;;7.00;7.00;;;;;;;;2;279107548;279107548;-90
2023/06/12 18:37:50;;;;;;;;;7.50;7.50;;;;;;;;2;234070995;234070995;-90
2023/06/12 18:46:51;;;;;;;;;6.50;6.50;;;;;;;;2;279083782;279083782;-90
2023/06/12 18:54:22;;;;;;;;;7.50;7.50;;;;;;;;2;234069054;234069054;-89
2023/06/12 19:03:29;;;;;;;;;7.50;7.50;;;;;;;;2;279083415;279083415;-96
2023/06/12 19:11:02;;;;;;;;;7.00;7.00;;;;;;;;2;234068270;234068270;-96
2023/06/12 19:20:04;;;;;;;;;6.50;6.50;;;;;;;;2;279078567;279078567;-94
2023/06/12 19:27:45;;;;;;;;;7.00;7.00;;;;;;;;2;233823874;233823874;-96
2023/06/12 19:36:45;;;;;;;;;7.50;7.50;;;;;;;;2;279081487;279081487;-90
2023/06/12 19:44:16;;;;;;;;;7.50;7.50;;;;;;;;2;234069399;234069399;-92
2023/06/12 19:53:17;;;;;;;;;4.50;4.50;;;;;;;;2;279077832;279077832;-91
2023/06/12 20:00:47;;;;;;;;;8.50;8.50;;;;;;;;2;234069119;234069119;-90
2023/06/12 20:09:47;;;;;;;;;5.50;5.50;;;;;;;;2;279079445;279079445;-90
2023/06/12 20:17:18;;;;;;;;;6.50;6.50;;;;;;;;2;234069007;234069007;-91
2023/06/12 20:51:14;;;;;;;;;;;;;;;;;;2;234086587;234086587;-96
2023/06/12 21:17:51;;;;;;;;;7.00;7.00;;;;;;;;2;279105949;279105949;-96
2023/06/12 21:25:33;;;;;;;;;30.00;19.00;;;;;;;;2;234068658;234068658;-96
2023/06/12 21:34:42;;;;;;;;;10.00;10.00;;;;;;;;2;279084276;279084276;-96
2023/06/12 21:42:15;;;;;;;;;12.50;12.50;;;;;;;;2;234068326;234068326;-96
2023/06/12 21:51:15;;;;;;;;;8.50;8.50;;;;;;;;2;279080094;279080094;-96
2023/06/12 21:58:46;;;;;;;;;7.50;7.50;;;;;;;;2;234069343;234069343;-96
2023/06/12 22:07:48;;;;;;;;;13.00;13.00;;;;;;;;2;279081201;279081201;-96
2023/06/12 22:15:19;;;;;;;;;11.50;11.50;;;;;;;;2;234068763;234068763;-96
2023/06/12 22:24:22;;;;;;;;;10.00;10.00;;;;;;;;2;279079815;279079815;-96
2023/06/12 22:31:53;;;;;;;;;8.50;8.50;;;;;;;;2;234069383;234069383;-96
2023/06/12 22:40:53;;;;;;;;;10.00;10.00;;;;;;;;2;279083154;279083154;-96
2023/06/12 22:48:29;;;;;;;;;7.00;7.00;;;;;;;;2;234068448;234068448;-96
2023/06/12 22:57:29;;;;;;;;;12.50;12.50;;;;;;;;2;279079888;279079888;-96
2023/06/12 23:05:01;;;;;;;;;6.00;6.00;;;;;;;;2;234069769;234069769;-96
2023/06/12 23:14:02;;;;;;;;;9.50;9.50;;;;;;;;2;279081156;279081156;-96
2023/06/12 23:21:37;;;;;;;;;16.00;16.00;;;;;;;;2;234069007;234069007;-96
2023/06/12 23:30:37;;;;;;;;;10.00;10.00;;;;;;;;2;279077851;279077851;-96
2023/06/12 23:38:08;;;;;;;;;10.50;10.50;;;;;;;;2;234071015;234071015;-96
2023/06/12 23:47:08;;;;;;;;;8.00;8.00;;;;;;;;2;279079883;279079883;-96
2023/06/12 23:54:39;;;;;;;;;14.00;14.00;;;;;;;;2;234068228;234068228;-96
